Maryknoll, Missouri
Current Conditions -  °F | °C
As of 11:27 AM on Friday 19 Dec 2014 (Local Time) from KSET Reporting Station
Overcast Overcast  
Wind Chill: 31°   Ceiling: 3800
Heat Index: 35°   Visibility: 7mi
Dew Point: 28°   Wind: 5mph
Humidity: 76%   Direction: 90°E
Pressure: 30.31"   Gusts: NA
Location:  38.9362°N, 90.7728°W
Report Text: KSET 191727Z AUTO 09004KT 7SM SCT014 OVC038 02/M02 A3031 RMK AO2 T00171022
Loading
Personal Weather Stations






























Interactive Weather Map New forecast layout! Learn more

10-Day Weather Forecast

Advertisements
Track Severe Weather on mobile